sensor_id;sensor_type;location;lat;lon;timestamp;temperature;humidity
70593;DHT22;58294;42.988;20.338;2023-01-24T00:01:14;154.50;2252.80
70593;DHT22;58294;42.988;20.338;2023-01-24T00:03:40;154.50;2252.80
70593;DHT22;58294;42.988;20.338;2023-01-24T00:06:06;154.40;2252.80
70593;DHT22;58294;42.988;20.338;2023-01-24T00:08:32;154.40;2252.80
70593;DHT22;58294;42.988;20.338;2023-01-24T00:11:03;154.40;2252.80
70593;DHT22;58294;42.988;20.338;2023-01-24T00:13:29;154.40;2252.80
70593;DHT22;58294;42.988;20.338;2023-01-24T00:16:21;154.40;2252.80
70593;DHT22;58294;42.988;20.338;2023-01-24T00:18:48;154.40;2252.80
70593;DHT22;58294;42.988;20.338;2023-01-24T00:21:19;154.40;2252.80
70593;DHT22;58294;42.988;20.338;2023-01-24T00:23:48;154.40;2252.80
70593;DHT22;58294;42.988;20.338;2023-01-24T00:26:15;154.50;2252.80
70593;DHT22;58294;42.988;20.338;2023-01-24T00:28:41;154.50;2252.80
70593;DHT22;58294;42.988;20.338;2023-01-24T00:31:07;154.50;2252.80
70593;DHT22;58294;42.988;20.338;2023-01-24T00:33:33;154.50;2252.80
70593;DHT22;58294;42.988;20.338;2023-01-24T00:36:00;154.50;2252.80
70593;DHT22;58294;42.988;20.338;2023-01-24T00:38:27;154.50;2252.80
70593;DHT22;58294;42.988;20.338;2023-01-24T00:40:53;154.50;2252.80
70593;DHT22;58294;42.988;20.338;2023-01-24T00:43:19;154.50;2252.80
70593;DHT22;58294;42.988;20.338;2023-01-24T00:45:45;154.50;2252.80
70593;DHT22;58294;42.988;20.338;2023-01-24T00:48:12;154.50;2252.80
70593;DHT22;58294;42.988;20.338;2023-01-24T00:50:38;154.50;2252.80
70593;DHT22;58294;42.988;20.338;2023-01-24T00:53:04;154.50;2252.80
70593;DHT22;58294;42.988;20.338;2023-01-24T00:55:30;154.50;2252.80
70593;DHT22;58294;42.988;20.338;2023-01-24T00:57:56;154.40;2252.80
70593;DHT22;58294;42.988;20.338;2023-01-24T01:00:22;154.40;2252.80
70593;DHT22;58294;42.988;20.338;2023-01-24T01:02:49;154.40;2252.80
70593;DHT22;58294;42.988;20.338;2023-01-24T01:05:16;154.40;2252.80
70593;DHT22;58294;42.988;20.338;2023-01-24T01:07:42;154.50;2252.80
70593;DHT22;58294;42.988;20.338;2023-01-24T01:10:09;154.50;2252.80
70593;DHT22;58294;42.988;20.338;2023-01-24T01:12:35;154.50;2252.80
70593;DHT22;58294;42.988;20.338;2023-01-24T01:15:01;154.50;2252.80
70593;DHT22;58294;42.988;20.338;2023-01-24T01:17:27;154.50;2252.80
70593;DHT22;58294;42.988;20.338;2023-01-24T01:19:53;154.50;2252.80
70593;DHT22;58294;42.988;20.338;2023-01-24T01:22:19;154.50;2252.80
70593;DHT22;58294;42.988;20.338;2023-01-24T01:24:45;154.50;2252.80
70593;DHT22;58294;42.988;20.338;2023-01-24T01:27:11;154.50;2252.80
70593;DHT22;58294;42.988;20.338;2023-01-24T01:29:37;154.50;2252.80
70593;DHT22;58294;42.988;20.338;2023-01-24T01:32:03;154.50;2252.80
70593;DHT22;58294;42.988;20.338;2023-01-24T01:34:29;179.20;2252.80
70593;DHT22;58294;42.988;20.338;2023-01-24T01:36:55;179.20;2252.80
70593;DHT22;58294;42.988;20.338;2023-01-24T01:39:20;179.20;2252.80
70593;DHT22;58294;42.988;20.338;2023-01-24T01:41:46;154.50;2252.80
70593;DHT22;58294;42.988;20.338;2023-01-24T01:44:27;179.20;2252.80
70593;DHT22;58294;42.988;20.338;2023-01-24T01:47:32;179.20;2252.80
70593;DHT22;58294;42.988;20.338;2023-01-24T01:50:32;179.20;2252.80
70593;DHT22;58294;42.988;20.338;2023-01-24T01:53:01;179.20;2252.80
70593;DHT22;58294;42.988;20.338;2023-01-24T01:55:33;179.20;2252.80
70593;DHT22;58294;42.988;20.338;2023-01-24T01:58:00;154.50;2252.80
70593;DHT22;58294;42.988;20.338;2023-01-24T02:00:27;154.50;2252.80
70593;DHT22;58294;42.988;20.338;2023-01-24T02:02:57;154.50;2252.80
70593;DHT22;58294;42.988;20.338;2023-01-24T02:05:44;154.40;2252.80
70593;DHT22;58294;42.988;20.338;2023-01-24T02:08:13;154.40;2252.80
70593;DHT22;58294;42.988;20.338;2023-01-24T02:10:40;154.40;2252.80
70593;DHT22;58294;42.988;20.338;2023-01-24T02:13:25;154.40;2252.80
70593;DHT22;58294;42.988;20.338;2023-01-24T02:15:53;154.40;2252.80
70593;DHT22;58294;42.988;20.338;2023-01-24T02:18:36;154.30;2252.80
70593;DHT22;58294;42.988;20.338;2023-01-24T02:21:03;154.30;2252.80
70593;DHT22;58294;42.988;20.338;2023-01-24T02:26:06;154.30;2252.80
70593;DHT22;58294;42.988;20.338;2023-01-24T02:28:32;154.30;2252.80
70593;DHT22;58294;42.988;20.338;2023-01-24T02:31:00;154.30;2252.80
70593;DHT22;58294;42.988;20.338;2023-01-24T02:33:26;154.30;2252.80
70593;DHT22;58294;42.988;20.338;2023-01-24T02:38:32;154.30;2252.80
70593;DHT22;58294;42.988;20.338;2023-01-24T02:41:00;154.40;2252.80
70593;DHT22;58294;42.988;20.338;2023-01-24T02:43:36;154.40;2252.80
70593;DHT22;58294;42.988;20.338;2023-01-24T02:46:03;154.40;2252.80
70593;DHT22;58294;42.988;20.338;2023-01-24T02:48:28;154.40;2252.80
70593;DHT22;58294;42.988;20.338;2023-01-24T02:50:54;154.40;2252.80
70593;DHT22;58294;42.988;20.338;2023-01-24T02:53:39;154.40;2252.80
70593;DHT22;58294;42.988;20.338;2023-01-24T02:56:08;154.50;2252.80
70593;DHT22;58294;42.988;20.338;2023-01-24T02:58:53;154.50;2252.80
70593;DHT22;58294;42.988;20.338;2023-01-24T03:01:21;154.50;2252.80
70593;DHT22;58294;42.988;20.338;2023-01-24T03:03:48;154.40;2252.80
70593;DHT22;58294;42.988;20.338;2023-01-24T03:06:16;154.40;2252.80
70593;DHT22;58294;42.988;20.338;2023-01-24T03:08:43;154.30;2252.80
70593;DHT22;58294;42.988;20.338;2023-01-24T03:11:09;154.30;2252.80
70593;DHT22;58294;42.988;20.338;2023-01-24T03:13:36;154.30;2252.80
70593;DHT22;58294;42.988;20.338;2023-01-24T03:16:20;154.20;2252.80
70593;DHT22;58294;42.988;20.338;2023-01-24T03:19:04;154.30;2252.80
70593;DHT22;58294;42.988;20.338;2023-01-24T03:21:49;154.30;2252.80
70593;DHT22;58294;42.988;20.338;2023-01-24T03:24:33;154.20;2252.80
70593;DHT22;58294;42.988;20.338;2023-01-24T03:27:17;154.20;2252.80
70593;DHT22;58294;42.988;20.338;2023-01-24T03:30:03;154.30;2252.80
70593;DHT22;58294;42.988;20.338;2023-01-24T03:32:47;154.30;2252.80
70593;DHT22;58294;42.988;20.338;2023-01-24T03:35:31;154.30;2252.80
70593;DHT22;58294;42.988;20.338;2023-01-24T03:37:57;154.30;2252.80
70593;DHT22;58294;42.988;20.338;2023-01-24T03:40:42;154.30;2252.80
70593;DHT22;58294;42.988;20.338;2023-01-24T03:43:08;154.30;2252.80
70593;DHT22;58294;42.988;20.338;2023-01-24T03:45:39;154.30;2252.80
70593;DHT22;58294;42.988;20.338;2023-01-24T03:48:09;154.30;2252.80
70593;DHT22;58294;42.988;20.338;2023-01-24T03:50:39;154.30;2252.80
70593;DHT22;58294;42.988;20.338;2023-01-24T03:53:27;154.30;2252.80
70593;DHT22;58294;42.988;20.338;2023-01-24T03:55:58;154.30;2252.80
70593;DHT22;58294;42.988;20.338;2023-01-24T03:58:28;154.30;2252.80
70593;DHT22;58294;42.988;20.338;2023-01-24T04:00:55;154.20;2252.80
70593;DHT22;58294;42.988;20.338;2023-01-24T04:03:21;154.20;2252.80
70593;DHT22;58294;42.988;20.338;2023-01-24T04:05:47;154.20;2252.80
70593;DHT22;58294;42.988;20.338;2023-01-24T04:08:13;154.20;2252.80
70593;DHT22;58294;42.988;20.338;2023-01-24T04:10:39;154.20;2252.80
70593;DHT22;58294;42.988;20.338;2023-01-24T04:13:05;154.20;2252.80
70593;DHT22;58294;42.988;20.338;2023-01-24T04:15:32;154.20;2252.80
70593;DHT22;58294;42.988;20.338;2023-01-24T04:18:00;154.20;2252.80
70593;DHT22;58294;42.988;20.338;2023-01-24T04:20:27;154.20;2252.80
70593;DHT22;58294;42.988;20.338;2023-01-24T04:22:54;154.20;2252.80
70593;DHT22;58294;42.988;20.338;2023-01-24T04:25:20;154.20;2252.80
70593;DHT22;58294;42.988;20.338;2023-01-24T04:27:46;154.20;2252.80
70593;DHT22;58294;42.988;20.338;2023-01-24T04:30:14;154.30;2252.80
70593;DHT22;58294;42.988;20.338;2023-01-24T04:32:40;154.30;2252.80
70593;DHT22;58294;42.988;20.338;2023-01-24T04:35:06;154.30;2252.80
70593;DHT22;58294;42.988;20.338;2023-01-24T04:37:33;154.30;2252.80
70593;DHT22;58294;42.988;20.338;2023-01-24T04:39:59;154.30;2252.80
70593;DHT22;58294;42.988;20.338;2023-01-24T04:42:28;154.20;2252.80
70593;DHT22;58294;42.988;20.338;2023-01-24T04:44:53;154.30;2252.80
70593;DHT22;58294;42.988;20.338;2023-01-24T04:47:19;154.30;2252.80
70593;DHT22;58294;42.988;20.338;2023-01-24T04:49:51;154.30;2252.80
70593;DHT22;58294;42.988;20.338;2023-01-24T04:52:16;154.30;2252.80
70593;DHT22;58294;42.988;20.338;2023-01-24T04:54:42;154.30;2252.80
70593;DHT22;58294;42.988;20.338;2023-01-24T04:57:11;154.30;2252.80
70593;DHT22;58294;42.988;20.338;2023-01-24T04:59:37;154.30;2252.80
70593;DHT22;58294;42.988;20.338;2023-01-24T05:02:03;154.30;2252.80
70593;DHT22;58294;42.988;20.338;2023-01-24T05:04:29;154.30;2252.80
70593;DHT22;58294;42.988;20.338;2023-01-24T05:06:55;154.30;2252.80
70593;DHT22;58294;42.988;20.338;2023-01-24T05:09:21;154.30;2252.80
70593;DHT22;58294;42.988;20.338;2023-01-24T05:11:47;154.30;2252.80
70593;DHT22;58294;42.988;20.338;2023-01-24T05:14:13;154.30;2252.80
70593;DHT22;58294;42.988;20.338;2023-01-24T05:16:38;154.30;2252.80
70593;DHT22;58294;42.988;20.338;2023-01-24T05:19:05;154.30;2252.80
70593;DHT22;58294;42.988;20.338;2023-01-24T05:21:30;154.30;2252.80
70593;DHT22;58294;42.988;20.338;2023-01-24T05:23:56;154.30;2252.80
70593;DHT22;58294;42.988;20.338;2023-01-24T05:26:24;154.30;2252.80
70593;DHT22;58294;42.988;20.338;2023-01-24T05:28:51;154.30;2252.80
70593;DHT22;58294;42.988;20.338;2023-01-24T05:31:17;154.30;2252.80
70593;DHT22;58294;42.988;20.338;2023-01-24T05:33:43;154.30;2252.80
70593;DHT22;58294;42.988;20.338;2023-01-24T05:36:17;154.30;2252.80
70593;DHT22;58294;42.988;20.338;2023-01-24T05:38:43;154.30;2252.80
70593;DHT22;58294;42.988;20.338;2023-01-24T05:41:11;154.30;2252.80
70593;DHT22;58294;42.988;20.338;2023-01-24T05:43:37;154.30;2252.80
70593;DHT22;58294;42.988;20.338;2023-01-24T05:46:08;154.30;2252.80
70593;DHT22;58294;42.988;20.338;2023-01-24T05:48:35;154.20;2252.80
70593;DHT22;58294;42.988;20.338;2023-01-24T05:51:05;154.20;2252.80
70593;DHT22;58294;42.988;20.338;2023-01-24T05:53:33;154.20;2252.80
70593;DHT22;58294;42.988;20.338;2023-01-24T05:56:06;154.20;2252.80
70593;DHT22;58294;42.988;20.338;2023-01-24T05:58:35;154.20;2252.80
70593;DHT22;58294;42.988;20.338;2023-01-24T06:01:05;154.20;2252.80
70593;DHT22;58294;42.988;20.338;2023-01-24T06:03:31;154.20;2252.80
70593;DHT22;58294;42.988;20.338;2023-01-24T06:05:57;154.30;2252.80
70593;DHT22;58294;42.988;20.338;2023-01-24T06:08:22;154.30;2252.80
70593;DHT22;58294;42.988;20.338;2023-01-24T06:10:48;154.30;2252.80
70593;DHT22;58294;42.988;20.338;2023-01-24T06:13:15;154.30;2252.80
70593;DHT22;58294;42.988;20.338;2023-01-24T06:15:40;154.30;2252.80
70593;DHT22;58294;42.988;20.338;2023-01-24T06:18:09;154.30;2252.80
70593;DHT22;58294;42.988;20.338;2023-01-24T06:20:38;154.30;2252.80
70593;DHT22;58294;42.988;20.338;2023-01-24T06:23:06;154.30;2252.80
70593;DHT22;58294;42.988;20.338;2023-01-24T06:25:33;154.20;2252.80
70593;DHT22;58294;42.988;20.338;2023-01-24T06:27:59;154.20;2252.80
70593;DHT22;58294;42.988;20.338;2023-01-24T06:30:26;154.30;2252.80
70593;DHT22;58294;42.988;20.338;2023-01-24T06:38:29;154.30;2252.80
70593;DHT22;58294;42.988;20.338;2023-01-24T06:40:57;154.20;2252.80
70593;DHT22;58294;42.988;20.338;2023-01-24T06:43:24;154.20;2252.80
70593;DHT22;58294;42.988;20.338;2023-01-24T06:45:50;154.20;2252.80
70593;DHT22;58294;42.988;20.338;2023-01-24T06:48:16;154.20;2252.80
70593;DHT22;58294;42.988;20.338;2023-01-24T06:50:42;154.30;2252.80
70593;DHT22;58294;42.988;20.338;2023-01-24T06:53:08;154.30;2252.80
70593;DHT22;58294;42.988;20.338;2023-01-24T06:55:34;154.30;2252.80
70593;DHT22;58294;42.988;20.338;2023-01-24T06:58:02;154.30;2252.80
70593;DHT22;58294;42.988;20.338;2023-01-24T07:00:28;154.30;2252.80
70593;DHT22;58294;42.988;20.338;2023-01-24T07:02:59;154.40;2252.80
70593;DHT22;58294;42.988;20.338;2023-01-24T07:05:26;154.40;2252.80
70593;DHT22;58294;42.988;20.338;2023-01-24T07:07:52;154.40;2252.80
70593;DHT22;58294;42.988;20.338;2023-01-24T07:10:17;154.40;2252.80
70593;DHT22;58294;42.988;20.338;2023-01-24T07:12:43;154.40;2252.80
70593;DHT22;58294;42.988;20.338;2023-01-24T07:15:09;154.40;2252.80
70593;DHT22;58294;42.988;20.338;2023-01-24T07:17:35;154.40;2252.80
70593;DHT22;58294;42.988;20.338;2023-01-24T07:20:01;154.40;2252.80
70593;DHT22;58294;42.988;20.338;2023-01-24T07:22:28;154.40;2252.80
70593;DHT22;58294;42.988;20.338;2023-01-24T07:24:54;154.40;2252.80
70593;DHT22;58294;42.988;20.338;2023-01-24T07:27:20;154.40;2252.80
70593;DHT22;58294;42.988;20.338;2023-01-24T07:29:46;154.50;2252.80
70593;DHT22;58294;42.988;20.338;2023-01-24T07:32:12;154.50;2252.80
70593;DHT22;58294;42.988;20.338;2023-01-24T07:34:38;154.50;2252.80
70593;DHT22;58294;42.988;20.338;2023-01-24T07:37:06;179.20;2252.80
70593;DHT22;58294;42.988;20.338;2023-01-24T07:39:32;179.20;2252.80
70593;DHT22;58294;42.988;20.338;2023-01-24T07:41:58;179.30;2252.80
70593;DHT22;58294;42.988;20.338;2023-01-24T07:44:24;179.30;2252.80
70593;DHT22;58294;42.988;20.338;2023-01-24T07:46:49;179.40;2252.80
70593;DHT22;58294;42.988;20.338;2023-01-24T07:49:15;179.50;2252.80
70593;DHT22;58294;42.988;20.338;2023-01-24T07:51:42;179.60;2252.80
70593;DHT22;58294;42.988;20.338;2023-01-24T07:54:08;179.70;2252.80
70593;DHT22;58294;42.988;20.338;2023-01-24T07:56:35;179.70;2252.80
70593;DHT22;58294;42.988;20.338;2023-01-24T07:59:02;179.80;2252.80
70593;DHT22;58294;42.988;20.338;2023-01-24T08:01:28;179.90;2252.80
70593;DHT22;58294;42.988;20.338;2023-01-24T08:03:55;180.00;2252.80
70593;DHT22;58294;42.988;20.338;2023-01-24T08:06:22;180.00;2252.80
70593;DHT22;58294;42.988;20.338;2023-01-24T08:08:48;180.10;2252.80
70593;DHT22;58294;42.988;20.338;2023-01-24T08:11:13;204.80;2252.80
70593;DHT22;58294;42.988;20.338;2023-01-24T08:13:43;204.80;2252.80
70593;DHT22;58294;42.988;20.338;2023-01-24T08:16:09;204.90;2252.80
70593;DHT22;58294;42.988;20.338;2023-01-24T08:18:37;205.10;2252.80
70593;DHT22;58294;42.988;20.338;2023-01-24T08:21:04;205.20;2252.80
70593;DHT22;58294;42.988;20.338;2023-01-24T08:23:30;205.20;2252.80
70593;DHT22;58294;42.988;20.338;2023-01-24T08:25:59;205.30;2252.80
70593;DHT22;58294;42.988;20.338;2023-01-24T08:28:26;205.40;2252.80
70593;DHT22;58294;42.988;20.338;2023-01-24T08:30:52;205.40;2252.80
70593;DHT22;58294;42.988;20.338;2023-01-24T08:33:19;205.50;2252.80
70593;DHT22;58294;42.988;20.338;2023-01-24T08:35:46;205.60;2252.80
70593;DHT22;58294;42.988;20.338;2023-01-24T08:38:13;205.60;2252.80
70593;DHT22;58294;42.988;20.338;2023-01-24T08:40:39;205.60;2252.80
70593;DHT22;58294;42.988;20.338;2023-01-24T08:43:05;205.60;2252.80
70593;DHT22;58294;42.988;20.338;2023-01-24T08:45:31;205.60;2252.80
70593;DHT22;58294;42.988;20.338;2023-01-24T08:47:57;205.70;2252.80
70593;DHT22;58294;42.988;20.338;2023-01-24T08:50:23;205.70;2252.80
70593;DHT22;58294;42.988;20.338;2023-01-24T08:52:49;205.70;2252.80
70593;DHT22;58294;42.988;20.338;2023-01-24T08:55:18;205.70;2252.80
70593;DHT22;58294;42.988;20.338;2023-01-24T08:57:44;205.70;2252.80
70593;DHT22;58294;42.988;20.338;2023-01-24T09:00:10;205.70;2252.80
70593;DHT22;58294;42.988;20.338;2023-01-24T09:02:36;205.70;2252.80
70593;DHT22;58294;42.988;20.338;2023-01-24T09:05:05;205.70;2252.80
70593;DHT22;58294;42.988;20.338;2023-01-24T09:07:31;205.70;2252.80
70593;DHT22;58294;42.988;20.338;2023-01-24T09:09:57;205.70;2252.80
70593;DHT22;58294;42.988;20.338;2023-01-24T09:12:23;205.60;2252.80
70593;DHT22;58294;42.988;20.338;2023-01-24T09:14:49;205.50;2252.80
70593;DHT22;58294;42.988;20.338;2023-01-24T09:17:14;205.40;2252.80
70593;DHT22;58294;42.988;20.338;2023-01-24T09:19:40;205.50;2252.80
70593;DHT22;58294;42.988;20.338;2023-01-24T09:22:06;205.40;2252.80
70593;DHT22;58294;42.988;20.338;2023-01-24T09:24:31;205.40;2252.80
70593;DHT22;58294;42.988;20.338;2023-01-24T09:26:57;205.40;2252.80
70593;DHT22;58294;42.988;20.338;2023-01-24T09:29:23;205.30;2252.80
70593;DHT22;58294;42.988;20.338;2023-01-24T09:31:49;205.20;2252.80
70593;DHT22;58294;42.988;20.338;2023-01-24T09:34:15;205.00;2252.80
70593;DHT22;58294;42.988;20.338;2023-01-24T09:36:41;204.90;2252.80
70593;DHT22;58294;42.988;20.338;2023-01-24T09:39:06;204.90;2252.80
70593;DHT22;58294;42.988;20.338;2023-01-24T09:42:06;204.80;2252.80
70593;DHT22;58294;42.988;20.338;2023-01-24T09:52:56;205.10;2252.80
70593;DHT22;58294;42.988;20.338;2023-01-24T09:55:27;205.20;2252.80
70593;DHT22;58294;42.988;20.338;2023-01-24T09:58:02;205.20;2252.80
70593;DHT22;58294;42.988;20.338;2023-01-24T10:00:33;205.10;2252.80
70593;DHT22;58294;42.988;20.338;2023-01-24T10:03:00;205.20;2252.80
70593;DHT22;58294;42.988;20.338;2023-01-24T10:05:38;205.30;2252.80
70593;DHT22;58294;42.988;20.338;2023-01-24T10:14:14;230.40;2252.80
70593;DHT22;58294;42.988;20.338;2023-01-24T10:17:04;230.60;2252.80
70593;DHT22;58294;42.988;20.338;2023-01-24T10:24:42;231.00;2252.80
70593;DHT22;58294;42.988;20.338;2023-01-24T10:27:38;231.10;2252.80
70593;DHT22;58294;42.988;20.338;2023-01-24T10:30:18;231.00;2252.80
70593;DHT22;58294;42.988;20.338;2023-01-24T10:32:47;231.00;2252.80
70593;DHT22;58294;42.988;20.338;2023-01-24T10:35:17;231.00;2252.80
70593;DHT22;58294;42.988;20.338;2023-01-24T10:37:49;230.90;2252.80
70593;DHT22;58294;42.988;20.338;2023-01-24T10:40:21;230.80;2252.80
70593;DHT22;58294;42.988;20.338;2023-01-24T10:42:48;230.80;2252.80
70593;DHT22;58294;42.988;20.338;2023-01-24T10:50:51;230.80;2252.80
70593;DHT22;58294;42.988;20.338;2023-01-24T10:53:27;230.70;2252.80
70593;DHT22;58294;42.988;20.338;2023-01-24T10:56:03;230.70;2252.80
70593;DHT22;58294;42.988;20.338;2023-01-24T10:58:36;230.70;2252.80
70593;DHT22;58294;42.988;20.338;2023-01-24T11:01:16;230.70;2252.80
70593;DHT22;58294;42.988;20.338;2023-01-24T11:03:44;230.70;2252.80
70593;DHT22;58294;42.988;20.338;2023-01-24T11:06:42;230.70;2252.80
70593;DHT22;58294;42.988;20.338;2023-01-24T11:09:13;230.60;2252.80
70593;DHT22;58294;42.988;20.338;2023-01-24T11:11:45;230.50;2252.80
70593;DHT22;58294;42.988;20.338;2023-01-24T11:14:19;230.50;2252.80
70593;DHT22;58294;42.988;20.338;2023-01-24T11:16:48;205.70;2252.80
70593;DHT22;58294;42.988;20.338;2023-01-24T11:19:35;230.40;2252.80
70593;DHT22;58294;42.988;20.338;2023-01-24T11:22:23;230.50;2252.80
70593;DHT22;58294;42.988;20.338;2023-01-24T11:24:50;230.60;2252.80
70593;DHT22;58294;42.988;20.338;2023-01-24T11:27:21;230.60;2252.80
70593;DHT22;58294;42.988;20.338;2023-01-24T11:30:07;230.50;2252.80
70593;DHT22;58294;42.988;20.338;2023-01-24T11:35:23;230.40;2252.80
70593;DHT22;58294;42.988;20.338;2023-01-24T11:38:13;205.70;2252.80
70593;DHT22;58294;42.988;20.338;2023-01-24T11:49:15;205.60;2252.80
70593;DHT22;58294;42.988;20.338;2023-01-24T11:52:04;205.70;2252.80
70593;DHT22;58294;42.988;20.338;2023-01-24T12:00:26;205.70;2252.80
70593;DHT22;58294;42.988;20.338;2023-01-24T12:03:09;230.40;2252.80
70593;DHT22;58294;42.988;20.338;2023-01-24T12:06:01;230.40;2252.80
70593;DHT22;58294;42.988;20.338;2023-01-24T12:08:47;205.70;2252.80
70593;DHT22;58294;42.988;20.338;2023-01-24T12:22:25;230.40;2252.80
70593;DHT22;58294;42.988;20.338;2023-01-24T12:25:03;230.50;2252.80
70593;DHT22;58294;42.988;20.338;2023-01-24T12:27:34;230.50;2252.80
70593;DHT22;58294;42.988;20.338;2023-01-24T12:30:13;230.50;2252.80
70593;DHT22;58294;42.988;20.338;2023-01-24T12:32:48;230.50;2252.80
70593;DHT22;58294;42.988;20.338;2023-01-24T12:35:32;230.50;2252.80
70593;DHT22;58294;42.988;20.338;2023-01-24T12:38:24;230.40;2252.80
70593;DHT22;58294;42.988;20.338;2023-01-24T12:57:37;205.60;2252.80
70593;DHT22;58294;42.988;20.338;2023-01-24T13:00:17;205.60;2252.80
70593;DHT22;58294;42.988;20.338;2023-01-24T13:13:40;205.70;2252.80
70593;DHT22;58294;42.988;20.338;2023-01-24T13:19:35;205.60;2252.80
70593;DHT22;58294;42.988;20.338;2023-01-24T13:27:23;205.00;2252.80
70593;DHT22;58294;42.988;20.338;2023-01-24T13:32:24;205.00;2252.80
70593;DHT22;58294;42.988;20.338;2023-01-24T13:34:53;204.90;2252.80
70593;DHT22;58294;42.988;20.338;2023-01-24T13:37:40;204.90;2252.80
70593;DHT22;58294;42.988;20.338;2023-01-24T13:42:47;205.00;2252.80
70593;DHT22;58294;42.988;20.338;2023-01-24T13:47:54;205.20;2252.80
70593;DHT22;58294;42.988;20.338;2023-01-24T13:50:21;205.30;2252.80
70593;DHT22;58294;42.988;20.338;2023-01-24T13:52:52;205.30;2252.80
70593;DHT22;58294;42.988;20.338;2023-01-24T13:57:46;205.30;2252.80
70593;DHT22;58294;42.988;20.338;2023-01-24T14:05:33;205.50;2252.80
70593;DHT22;58294;42.988;20.338;2023-01-24T14:16:02;205.40;2252.80
70593;DHT22;58294;42.988;20.338;2023-01-24T14:18:52;205.40;2252.80
70593;DHT22;58294;42.988;20.338;2023-01-24T14:21:23;205.40;2252.80
70593;DHT22;58294;42.988;20.338;2023-01-24T14:24:01;205.30;2252.80
70593;DHT22;58294;42.988;20.338;2023-01-24T14:26:31;205.30;2252.80
70593;DHT22;58294;42.988;20.338;2023-01-24T14:29:09;205.30;2252.80
70593;DHT22;58294;42.988;20.338;2023-01-24T14:31:38;205.30;2252.80
70593;DHT22;58294;42.988;20.338;2023-01-24T14:34:25;205.30;2252.80
70593;DHT22;58294;42.988;20.338;2023-01-24T14:37:07;205.30;2252.80
70593;DHT22;58294;42.988;20.338;2023-01-24T14:39:33;205.30;2252.80
70593;DHT22;58294;42.988;20.338;2023-01-24T14:42:04;205.30;2252.80
70593;DHT22;58294;42.988;20.338;2023-01-24T14:44:37;205.30;2252.80
70593;DHT22;58294;42.988;20.338;2023-01-24T14:47:05;205.30;2252.80
70593;DHT22;58294;42.988;20.338;2023-01-24T14:49:41;205.30;2252.80
70593;DHT22;58294;42.988;20.338;2023-01-24T14:52:18;205.30;2252.80
70593;DHT22;58294;42.988;20.338;2023-01-24T14:54:46;205.30;2252.80
70593;DHT22;58294;42.988;20.338;2023-01-24T15:00:06;205.40;2252.80
70593;DHT22;58294;42.988;20.338;2023-01-24T15:02:33;205.40;2252.80
70593;DHT22;58294;42.988;20.338;2023-01-24T15:04:59;205.20;2252.80
70593;DHT22;58294;42.988;20.338;2023-01-24T15:07:25;205.20;2252.80
70593;DHT22;58294;42.988;20.338;2023-01-24T15:09:51;205.20;2252.80
70593;DHT22;58294;42.988;20.338;2023-01-24T15:12:50;205.10;2252.80
70593;DHT22;58294;42.988;20.338;2023-01-24T15:15:16;204.90;2252.80
70593;DHT22;58294;42.988;20.338;2023-01-24T15:17:45;204.90;2252.80
70593;DHT22;58294;42.988;20.338;2023-01-24T15:20:19;204.80;2252.80
70593;DHT22;58294;42.988;20.338;2023-01-24T15:22:51;204.80;2252.80
70593;DHT22;58294;42.988;20.338;2023-01-24T15:25:30;180.10;2252.80
70593;DHT22;58294;42.988;20.338;2023-01-24T15:28:07;180.00;2252.80
70593;DHT22;58294;42.988;20.338;2023-01-24T15:30:34;179.90;2252.80
70593;DHT22;58294;42.988;20.338;2023-01-24T15:33:02;179.80;2252.80
70593;DHT22;58294;42.988;20.338;2023-01-24T15:35:36;179.80;2252.80
70593;DHT22;58294;42.988;20.338;2023-01-24T15:40:55;179.70;2252.80
70593;DHT22;58294;42.988;20.338;2023-01-24T15:43:37;179.80;2252.80
70593;DHT22;58294;42.988;20.338;2023-01-24T15:49:36;179.60;2252.80
70593;DHT22;58294;42.988;20.338;2023-01-24T15:54:42;179.30;2252.80
70593;DHT22;58294;42.988;20.338;2023-01-24T15:57:34;179.40;2252.80
70593;DHT22;58294;42.988;20.338;2023-01-24T16:00:21;179.50;2252.80
70593;DHT22;58294;42.988;20.338;2023-01-24T16:02:47;179.40;2252.80
70593;DHT22;58294;42.988;20.338;2023-01-24T16:05:16;179.40;2252.80
70593;DHT22;58294;42.988;20.338;2023-01-24T16:07:42;179.30;2252.80
70593;DHT22;58294;42.988;20.338;2023-01-24T16:10:17;179.30;2252.80
70593;DHT22;58294;42.988;20.338;2023-01-24T16:12:45;179.20;2252.80
70593;DHT22;58294;42.988;20.338;2023-01-24T16:15:19;179.30;2252.80
70593;DHT22;58294;42.988;20.338;2023-01-24T16:17:45;179.30;2252.80
70593;DHT22;58294;42.988;20.338;2023-01-24T16:20:25;179.30;2252.80
70593;DHT22;58294;42.988;20.338;2023-01-24T16:22:52;179.30;2252.80
70593;DHT22;58294;42.988;20.338;2023-01-24T16:25:19;179.30;2252.80
70593;DHT22;58294;42.988;20.338;2023-01-24T16:27:46;179.30;2252.80
70593;DHT22;58294;42.988;20.338;2023-01-24T16:30:23;179.20;2252.80
70593;DHT22;58294;42.988;20.338;2023-01-24T16:32:50;179.30;2252.80
70593;DHT22;58294;42.988;20.338;2023-01-24T16:35:17;179.40;2252.80
70593;DHT22;58294;42.988;20.338;2023-01-24T16:37:43;179.50;2252.80
70593;DHT22;58294;42.988;20.338;2023-01-24T16:40:11;179.50;2252.80
70593;DHT22;58294;42.988;20.338;2023-01-24T16:42:41;179.60;2252.80
70593;DHT22;58294;42.988;20.338;2023-01-24T16:45:25;179.60;2252.80
70593;DHT22;58294;42.988;20.338;2023-01-24T16:47:53;179.60;2252.80
70593;DHT22;58294;42.988;20.338;2023-01-24T16:50:19;179.50;2252.80
70593;DHT22;58294;42.988;20.338;2023-01-24T16:52:45;179.50;2252.80
70593;DHT22;58294;42.988;20.338;2023-01-24T16:55:11;179.30;2252.80
70593;DHT22;58294;42.988;20.338;2023-01-24T16:57:37;179.30;2252.80
70593;DHT22;58294;42.988;20.338;2023-01-24T17:00:04;179.20;2252.80
70593;DHT22;58294;42.988;20.338;2023-01-24T17:02:31;179.20;2252.80
70593;DHT22;58294;42.988;20.338;2023-01-24T17:04:57;179.30;2252.80
70593;DHT22;58294;42.988;20.338;2023-01-24T17:07:23;179.20;2252.80
70593;DHT22;58294;42.988;20.338;2023-01-24T17:09:49;154.50;2252.80